sensor_id;sensor_type;location;lat;lon;timestamp;pressure;altitude;pressure_sealevel;temperature;humidity
30724;BME280;17473;52.286;20.930;2023-04-10T00:00:35;101091.31;;;9.21;100.00
30724;BME280;17473;52.286;20.930;2023-04-10T00:03:04;101098.34;;;9.20;100.00
30724;BME280;17473;52.286;20.930;2023-04-10T00:05:32;101102.53;;;9.17;100.00
30724;BME280;17473;52.286;20.930;2023-04-10T00:07:59;101099.97;;;9.18;100.00
30724;BME280;17473;52.286;20.930;2023-04-10T00:10:26;101106.06;;;9.17;100.00
30724;BME280;17473;52.286;20.930;2023-04-10T00:12:56;101102.53;;;9.17;100.00
30724;BME280;17473;52.286;20.930;2023-04-10T00:15:24;101101.78;;;9.19;100.00
30724;BME280;17473;52.286;20.930;2023-04-10T00:17:51;101092.53;;;9.28;100.00
30724;BME280;17473;52.286;20.930;2023-04-10T00:20:22;101096.28;;;9.33;100.00
30724;BME280;17473;52.286;20.930;2023-04-10T00:22:49;101091.31;;;9.21;100.00
30724;BME280;17473;52.286;20.930;2023-04-10T00:25:16;101104.81;;;9.27;100.00
30724;BME280;17473;52.286;20.930;2023-04-10T00:27:43;101099.56;;;9.11;100.00
30724;BME280;17473;52.286;20.930;2023-04-10T00:30:10;101095.16;;;9.10;100.00
30724;BME280;17473;52.286;20.930;2023-04-10T00:32:38;101107.41;;;9.09;100.00
30724;BME280;17473;52.286;20.930;2023-04-10T00:35:06;101100.84;;;9.01;100.00
30724;BME280;17473;52.286;20.930;2023-04-10T00:37:34;101105.47;;;9.05;100.00
30724;BME280;17473;52.286;20.930;2023-04-10T00:40:02;101105.47;;;9.05;100.00
30724;BME280;17473;52.286;20.930;2023-04-10T00:42:30;101101.72;;;9.01;100.00
30724;BME280;17473;52.286;20.930;2023-04-10T00:44:58;101100.03;;;9.02;100.00
30724;BME280;17473;52.286;20.930;2023-04-10T00:47:26;101086.44;;;8.94;100.00
30724;BME280;17473;52.286;20.930;2023-04-10T00:49:54;101093.03;;;8.86;100.00
30724;BME280;17473;52.286;20.930;2023-04-10T00:52:21;101091.41;;;8.88;100.00
30724;BME280;17473;52.286;20.930;2023-04-10T00:54:48;101096.69;;;8.88;100.00
30724;BME280;17473;52.286;20.930;2023-04-10T00:57:16;101099.78;;;8.97;100.00
30724;BME280;17473;52.286;20.930;2023-04-10T00:59:43;101095.00;;;9.06;100.00
30724;BME280;17473;52.286;20.930;2023-04-10T01:02:10;101093.34;;;8.92;100.00
30724;BME280;17473;52.286;20.930;2023-04-10T01:04:39;101093.53;;;8.95;100.00
30724;BME280;17473;52.286;20.930;2023-04-10T01:10:14;101102.00;;;8.89;100.00
30724;BME280;17473;52.286;20.930;2023-04-10T01:16:26;101097.78;;;9.10;100.00
30724;BME280;17473;52.286;20.930;2023-04-10T01:19:08;101099.56;;;9.11;100.00
30724;BME280;17473;52.286;20.930;2023-04-10T01:21:38;101104.59;;;9.06;100.00
30724;BME280;17473;52.286;20.930;2023-04-10T01:32:43;101100.66;;;9.14;100.00
30724;BME280;17473;52.286;20.930;2023-04-10T01:35:11;101094.22;;;8.91;100.00
30724;BME280;17473;52.286;20.930;2023-04-10T01:37:42;101100.72;;;8.81;100.00
30724;BME280;17473;52.286;20.930;2023-04-10T01:40:14;101104.34;;;8.67;100.00
30724;BME280;17473;52.286;20.930;2023-04-10T01:42:54;101100.41;;;8.75;100.00
30724;BME280;17473;52.286;20.930;2023-04-10T01:45:28;101101.16;;;8.72;100.00
30724;BME280;17473;52.286;20.930;2023-04-10T01:47:55;101096.59;;;8.70;100.00
30724;BME280;17473;52.286;20.930;2023-04-10T01:50:22;101104.50;;;8.70;100.00
30724;BME280;17473;52.286;20.930;2023-04-10T01:52:51;101104.16;;;8.80;100.00
30724;BME280;17473;52.286;20.930;2023-04-10T01:55:20;101111.00;;;8.76;100.00
30724;BME280;17473;52.286;20.930;2023-04-10T01:57:48;101102.47;;;8.64;100.00
30724;BME280;17473;52.286;20.930;2023-04-10T02:00:16;101106.06;;;8.50;100.00
30724;BME280;17473;52.286;20.930;2023-04-10T02:02:43;101105.69;;;8.58;100.00
30724;BME280;17473;52.286;20.930;2023-04-10T02:05:11;101115.16;;;8.55;100.00
30724;BME280;17473;52.286;20.930;2023-04-10T02:07:45;101111.06;;;8.45;100.00
30724;BME280;17473;52.286;20.930;2023-04-10T02:10:27;101103.38;;;8.48;100.00
30724;BME280;17473;52.286;20.930;2023-04-10T02:13:04;101105.47;;;8.39;100.00
30724;BME280;17473;52.286;20.930;2023-04-10T02:15:32;101101.69;;;8.34;100.00
30724;BME280;17473;52.286;20.930;2023-04-10T02:18:02;101107.53;;;8.28;100.00
30724;BME280;17473;52.286;20.930;2023-04-10T02:20:32;101104.22;;;8.15;100.00
30724;BME280;17473;52.286;20.930;2023-04-10T02:23:00;101099.78;;;8.14;100.00
30724;BME280;17473;52.286;20.930;2023-04-10T02:25:33;101103.59;;;8.20;100.00
30724;BME280;17473;52.286;20.930;2023-04-10T02:28:05;101104.28;;;8.17;100.00
30724;BME280;17473;52.286;20.930;2023-04-10T02:30:33;101106.84;;;8.15;100.00
30724;BME280;17473;52.286;20.930;2023-04-10T02:33:00;101116.13;;;8.09;100.00
30724;BME280;17473;52.286;20.930;2023-04-10T02:35:27;101114.91;;;8.02;100.00
30724;BME280;17473;52.286;20.930;2023-04-10T02:37:55;101103.38;;;8.00;100.00
30724;BME280;17473;52.286;20.930;2023-04-10T02:40:22;101110.34;;;7.99;100.00
30724;BME280;17473;52.286;20.930;2023-04-10T02:42:49;101118.09;;;7.96;100.00
30724;BME280;17473;52.286;20.930;2023-04-10T02:45:16;101110.91;;;7.94;100.00
30724;BME280;17473;52.286;20.930;2023-04-10T02:47:43;101112.97;;;7.99;100.00
30724;BME280;17473;52.286;20.930;2023-04-10T02:50:11;101106.75;;;7.97;100.00
30724;BME280;17473;52.286;20.930;2023-04-10T02:52:38;101113.19;;;7.88;100.00
30724;BME280;17473;52.286;20.930;2023-04-10T02:55:05;101105.97;;;7.83;100.00
30724;BME280;17473;52.286;20.930;2023-04-10T02:57:33;101109.31;;;7.81;100.00
30724;BME280;17473;52.286;20.930;2023-04-10T03:00:02;101106.53;;;7.78;100.00
30724;BME280;17473;52.286;20.930;2023-04-10T03:02:30;101113.75;;;7.82;100.00
30724;BME280;17473;52.286;20.930;2023-04-10T03:04:59;101114.72;;;7.67;100.00
30724;BME280;17473;52.286;20.930;2023-04-10T03:07:27;101119.78;;;7.64;100.00
30724;BME280;17473;52.286;20.930;2023-04-10T03:09:54;101121.13;;;7.58;100.00
30724;BME280;17473;52.286;20.930;2023-04-10T03:12:21;101117.97;;;7.63;100.00
30724;BME280;17473;52.286;20.930;2023-04-10T03:14:48;101115.63;;;7.53;100.00
30724;BME280;17473;52.286;20.930;2023-04-10T03:17:15;101122.06;;;7.58;100.00
30724;BME280;17473;52.286;20.930;2023-04-10T03:19:42;101117.69;;;7.59;100.00
30724;BME280;17473;52.286;20.930;2023-04-10T03:22:09;101114.09;;;7.57;100.00
30724;BME280;17473;52.286;20.930;2023-04-10T03:24:36;101108.94;;;7.43;100.00
30724;BME280;17473;52.286;20.930;2023-04-10T03:27:04;101106.47;;;7.61;100.00
30724;BME280;17473;52.286;20.930;2023-04-10T03:29:31;101108.59;;;7.52;100.00
30724;BME280;17473;52.286;20.930;2023-04-10T03:31:58;101110.47;;;7.40;100.00
30724;BME280;17473;52.286;20.930;2023-04-10T03:34:25;101108.84;;;7.42;100.00
30724;BME280;17473;52.286;20.930;2023-04-10T03:36:52;101107.66;;;7.51;100.00
30724;BME280;17473;52.286;20.930;2023-04-10T03:39:19;101100.31;;;7.46;100.00
30724;BME280;17473;52.286;20.930;2023-04-10T03:41:46;101106.84;;;7.38;100.00
30724;BME280;17473;52.286;20.930;2023-04-10T03:44:13;101100.16;;;7.43;100.00
30724;BME280;17473;52.286;20.930;2023-04-10T03:46:41;101101.84;;;7.57;100.00
30724;BME280;17473;52.286;20.930;2023-04-10T03:49:08;101107.50;;;7.48;100.00
30724;BME280;17473;52.286;20.930;2023-04-10T03:51:35;101108.66;;;7.39;100.00
30724;BME280;17473;52.286;20.930;2023-04-10T03:54:02;101110.00;;;7.47;100.00
30724;BME280;17473;52.286;20.930;2023-04-10T03:56:29;101103.69;;;7.43;100.00
30724;BME280;17473;52.286;20.930;2023-04-10T03:58:56;101111.63;;;7.45;100.00
30724;BME280;17473;52.286;20.930;2023-04-10T04:01:23;101108.84;;;7.42;100.00
30724;BME280;17473;52.286;20.930;2023-04-10T04:03:51;101108.66;;;7.54;100.00
30724;BME280;17473;52.286;20.930;2023-04-10T04:06:18;101107.19;;;7.59;100.00
30724;BME280;17473;52.286;20.930;2023-04-10T04:08:45;101127.13;;;7.70;100.00
30724;BME280;17473;52.286;20.930;2023-04-10T04:11:12;101124.78;;;7.60;100.00
30724;BME280;17473;52.286;20.930;2023-04-10T04:13:39;101123.13;;;7.62;100.00
30724;BME280;17473;52.286;20.930;2023-04-10T04:16:08;101113.41;;;7.76;100.00
30724;BME280;17473;52.286;20.930;2023-04-10T04:18:35;101124.16;;;7.95;100.00
30724;BME280;17473;52.286;20.930;2023-04-10T04:21:02;101121.13;;;8.52;100.00
30724;BME280;17473;52.286;20.930;2023-04-10T04:23:29;101125.44;;;9.18;99.20
30724;BME280;17473;52.286;20.930;2023-04-10T04:25:57;101134.44;;;9.94;95.86
30724;BME280;17473;52.286;20.930;2023-04-10T04:28:24;101133.69;;;10.52;90.63
30724;BME280;17473;52.286;20.930;2023-04-10T04:30:51;101149.69;;;11.16;86.58
30724;BME280;17473;52.286;20.930;2023-04-10T04:33:18;101141.44;;;11.93;82.41
30724;BME280;17473;52.286;20.930;2023-04-10T04:35:45;101150.34;;;12.63;77.13
30724;BME280;17473;52.286;20.930;2023-04-10T04:38:12;101156.97;;;13.24;74.51
30724;BME280;17473;52.286;20.930;2023-04-10T04:40:39;101150.63;;;13.71;71.39
30724;BME280;17473;52.286;20.930;2023-04-10T04:43:06;101161.25;;;14.27;68.77
30724;BME280;17473;52.286;20.930;2023-04-10T04:45:33;101163.16;;;14.91;65.55
30724;BME280;17473;52.286;20.930;2023-04-10T04:48:00;101162.22;;;15.54;63.01
30724;BME280;17473;52.286;20.930;2023-04-10T04:50:27;101162.81;;;16.16;60.50
30724;BME280;17473;52.286;20.930;2023-04-10T04:52:54;101159.66;;;17.18;57.19
30724;BME280;17473;52.286;20.930;2023-04-10T04:55:21;101156.81;;;18.13;53.69
30724;BME280;17473;52.286;20.930;2023-04-10T04:57:48;101156.31;;;19.10;50.47
30724;BME280;17473;52.286;20.930;2023-04-10T05:00:16;101144.44;;;19.72;48.60
30724;BME280;17473;52.286;20.930;2023-04-10T05:02:43;101150.16;;;20.20;47.11
30724;BME280;17473;52.286;20.930;2023-04-10T05:05:10;101156.59;;;20.59;46.16
30724;BME280;17473;52.286;20.930;2023-04-10T05:07:37;101152.34;;;21.20;45.02
30724;BME280;17473;52.286;20.930;2023-04-10T05:10:05;101164.94;;;21.57;44.31
30724;BME280;17473;52.286;20.930;2023-04-10T05:12:32;101156.00;;;21.89;43.15
30724;BME280;17473;52.286;20.930;2023-04-10T05:14:59;101162.22;;;22.44;42.08
30724;BME280;17473;52.286;20.930;2023-04-10T05:17:26;101155.78;;;22.85;41.14
30724;BME280;17473;52.286;20.930;2023-04-10T05:19:53;101157.91;;;23.72;39.60
30724;BME280;17473;52.286;20.930;2023-04-10T05:22:21;101146.59;;;24.29;38.48
30724;BME280;17473;52.286;20.930;2023-04-10T05:24:48;101151.56;;;24.69;37.53
30724;BME280;17473;52.286;20.930;2023-04-10T05:27:16;101155.25;;;25.28;36.27
30724;BME280;17473;52.286;20.930;2023-04-10T05:29:43;101152.56;;;25.83;35.39
30724;BME280;17473;52.286;20.930;2023-04-10T05:32:10;101159.31;;;26.57;34.09
30724;BME280;17473;52.286;20.930;2023-04-10T05:34:37;101159.94;;;27.12;33.29
30724;BME280;17473;52.286;20.930;2023-04-10T05:37:04;101160.28;;;27.75;32.53
30724;BME280;17473;52.286;20.930;2023-04-10T05:39:31;101162.88;;;27.80;31.82
30724;BME280;17473;52.286;20.930;2023-04-10T05:41:58;101165.56;;;27.80;31.63
30724;BME280;17473;52.286;20.930;2023-04-10T05:44:25;101160.19;;;26.59;33.19
30724;BME280;17473;52.286;20.930;2023-04-10T05:46:52;101160.88;;;26.69;33.33
30724;BME280;17473;52.286;20.930;2023-04-10T05:49:20;101164.88;;;27.34;32.26
30724;BME280;17473;52.286;20.930;2023-04-10T05:51:47;101156.66;;;28.44;30.42
30724;BME280;17473;52.286;20.930;2023-04-10T05:54:16;101161.13;;;27.79;31.60
30724;BME280;17473;52.286;20.930;2023-04-10T05:56:43;101167.03;;;27.59;31.45
30724;BME280;17473;52.286;20.930;2023-04-10T05:59:10;101156.06;;;27.98;30.67
30724;BME280;17473;52.286;20.930;2023-04-10T06:01:39;101164.63;;;29.12;29.71
30724;BME280;17473;52.286;20.930;2023-04-10T06:04:07;101158.75;;;29.26;29.03
30724;BME280;17473;52.286;20.930;2023-04-10T06:06:34;101160.16;;;28.48;29.93
30724;BME280;17473;52.286;20.930;2023-04-10T06:09:01;101163.78;;;29.10;29.06
30724;BME280;17473;52.286;20.930;2023-04-10T06:11:28;101162.78;;;29.42;28.54
30724;BME280;17473;52.286;20.930;2023-04-10T06:13:55;101168.84;;;28.61;29.91
30724;BME280;17473;52.286;20.930;2023-04-10T06:16:22;101163.63;;;29.44;29.04
30724;BME280;17473;52.286;20.930;2023-04-10T06:18:49;101177.94;;;31.49;26.60
30724;BME280;17473;52.286;20.930;2023-04-10T06:21:18;101164.13;;;32.79;24.97
30724;BME280;17473;52.286;20.930;2023-04-10T06:23:46;101167.13;;;33.49;24.20
30724;BME280;17473;52.286;20.930;2023-04-10T06:26:13;101164.75;;;32.65;24.56
30724;BME280;17473;52.286;20.930;2023-04-10T06:28:40;101162.44;;;32.56;24.87
30724;BME280;17473;52.286;20.930;2023-04-10T06:31:08;101164.94;;;33.38;23.84
30724;BME280;17473;52.286;20.930;2023-04-10T06:33:35;101170.50;;;33.54;23.70
30724;BME280;17473;52.286;20.930;2023-04-10T06:36:03;101169.72;;;33.52;23.89
30724;BME280;17473;52.286;20.930;2023-04-10T06:44:01;101174.19;;;34.43;22.74
30724;BME280;17473;52.286;20.930;2023-04-10T06:46:29;101171.13;;;34.49;22.87
30724;BME280;17473;52.286;20.930;2023-04-10T06:48:56;101189.47;;;35.62;21.73
30724;BME280;17473;52.286;20.930;2023-04-10T06:51:23;101172.84;;;35.49;21.71
30724;BME280;17473;52.286;20.930;2023-04-10T06:53:50;101178.69;;;35.59;21.81
30724;BME280;17473;52.286;20.930;2023-04-10T06:56:18;101172.03;;;35.63;21.90
30724;BME280;17473;52.286;20.930;2023-04-10T06:58:45;101168.38;;;36.09;21.71
30724;BME280;17473;52.286;20.930;2023-04-10T07:01:12;101178.91;;;36.17;20.92
30724;BME280;17473;52.286;20.930;2023-04-10T07:03:39;101179.22;;;35.34;21.64
30724;BME280;17473;52.286;20.930;2023-04-10T07:06:06;101173.53;;;35.37;21.84
30724;BME280;17473;52.286;20.930;2023-04-10T07:08:35;101171.56;;;34.57;22.55
30724;BME280;17473;52.286;20.930;2023-04-10T07:11:02;101161.53;;;34.58;22.38
30724;BME280;17473;52.286;20.930;2023-04-10T07:13:29;101176.53;;;34.33;22.55
30724;BME280;17473;52.286;20.930;2023-04-10T07:15:56;101172.34;;;34.43;22.87
30724;BME280;17473;52.286;20.930;2023-04-10T07:18:23;101173.66;;;34.01;22.84
30724;BME280;17473;52.286;20.930;2023-04-10T07:20:51;101175.41;;;33.29;23.84
30724;BME280;17473;52.286;20.930;2023-04-10T07:23:18;101178.19;;;32.70;24.93
30724;BME280;17473;52.286;20.930;2023-04-10T07:25:46;101177.63;;;31.12;27.18
30724;BME280;17473;52.286;20.930;2023-04-10T07:28:13;101184.38;;;32.13;25.99
30724;BME280;17473;52.286;20.930;2023-04-10T07:30:40;101184.31;;;28.90;29.33
30724;BME280;17473;52.286;20.930;2023-04-10T07:33:07;101180.47;;;29.56;29.28
30724;BME280;17473;52.286;20.930;2023-04-10T07:35:34;101183.81;;;28.77;30.69
30724;BME280;17473;52.286;20.930;2023-04-10T07:38:02;101175.59;;;29.39;29.91
30724;BME280;17473;52.286;20.930;2023-04-10T07:40:30;101182.03;;;28.76;30.68
30724;BME280;17473;52.286;20.930;2023-04-10T07:42:57;101176.44;;;28.49;31.70
30724;BME280;17473;52.286;20.930;2023-04-10T07:45:24;101186.31;;;29.43;30.16
30724;BME280;17473;52.286;20.930;2023-04-10T07:47:51;101187.50;;;28.41;30.81
30724;BME280;17473;52.286;20.930;2023-04-10T07:50:18;101179.75;;;29.77;29.53
30724;BME280;17473;52.286;20.930;2023-04-10T07:52:45;101182.53;;;28.24;31.16
30724;BME280;17473;52.286;20.930;2023-04-10T07:55:12;101192.47;;;28.90;30.26
30724;BME280;17473;52.286;20.930;2023-04-10T07:57:39;101192.56;;;28.87;30.90
30724;BME280;17473;52.286;20.930;2023-04-10T08:00:08;101185.06;;;28.95;31.81
30724;BME280;17473;52.286;20.930;2023-04-10T08:02:35;101189.81;;;27.88;32.13
30724;BME280;17473;52.286;20.930;2023-04-10T08:05:03;101186.38;;;27.02;33.39
30724;BME280;17473;52.286;20.930;2023-04-10T08:07:30;101182.94;;;26.94;33.76
30724;BME280;17473;52.286;20.930;2023-04-10T08:09:57;101181.84;;;27.82;33.12
30724;BME280;17473;52.286;20.930;2023-04-10T08:12:24;101180.09;;;29.40;31.92
30724;BME280;17473;52.286;20.930;2023-04-10T08:14:52;101168.69;;;28.67;31.48
30724;BME280;17473;52.286;20.930;2023-04-10T08:17:19;101172.47;;;28.93;31.67
30724;BME280;17473;52.286;20.930;2023-04-10T08:19:46;101174.06;;;28.37;32.16
30724;BME280;17473;52.286;20.930;2023-04-10T08:22:13;101169.81;;;26.74;33.49
30724;BME280;17473;52.286;20.930;2023-04-10T08:24:40;101173.53;;;26.68;33.73
30724;BME280;17473;52.286;20.930;2023-04-10T08:27:06;101168.25;;;26.62;34.63
30724;BME280;17473;52.286;20.930;2023-04-10T08:29:33;101167.06;;;26.76;35.04
30724;BME280;17473;52.286;20.930;2023-04-10T08:32:01;101173.06;;;27.31;34.52
30724;BME280;17473;52.286;20.930;2023-04-10T08:34:28;101167.41;;;27.42;34.15
30724;BME280;17473;52.286;20.930;2023-04-10T08:36:56;101166.47;;;26.16;34.54
30724;BME280;17473;52.286;20.930;2023-04-10T08:39:23;101169.66;;;25.86;36.41
30724;BME280;17473;52.286;20.930;2023-04-10T08:41:50;101157.25;;;26.26;34.77
30724;BME280;17473;52.286;20.930;2023-04-10T08:44:17;101158.81;;;26.83;35.04
30724;BME280;17473;52.286;20.930;2023-04-10T08:46:44;101154.03;;;26.02;33.91
30724;BME280;17473;52.286;20.930;2023-04-10T08:52:16;101164.75;;;24.94;35.83
30724;BME280;17473;52.286;20.930;2023-04-10T08:54:49;101153.16;;;25.49;36.73
30724;BME280;17473;52.286;20.930;2023-04-10T08:57:17;101154.75;;;25.60;36.47
30724;BME280;17473;52.286;20.930;2023-04-10T08:59:50;101153.53;;;25.80;35.95
30724;BME280;17473;52.286;20.930;2023-04-10T09:02:20;101157.84;;;25.34;35.21
30724;BME280;17473;52.286;20.930;2023-04-10T09:04:50;101150.44;;;26.00;35.20
30724;BME280;17473;52.286;20.930;2023-04-10T09:07:18;101141.81;;;25.80;34.68
30724;BME280;17473;52.286;20.930;2023-04-10T09:09:45;101144.00;;;25.56;36.83
30724;BME280;17473;52.286;20.930;2023-04-10T09:12:12;101143.03;;;25.63;35.90
30724;BME280;17473;52.286;20.930;2023-04-10T09:14:41;101141.50;;;25.98;36.00
30724;BME280;17473;52.286;20.930;2023-04-10T09:17:22;101132.84;;;26.28;35.70
30724;BME280;17473;52.286;20.930;2023-04-10T09:19:54;101127.66;;;26.62;34.06
30724;BME280;17473;52.286;20.930;2023-04-10T09:22:33;101134.75;;;26.22;34.62
30724;BME280;17473;52.286;20.930;2023-04-10T09:25:03;101132.88;;;26.71;32.92
30724;BME280;17473;52.286;20.930;2023-04-10T09:27:35;101125.66;;;25.76;34.00
30724;BME280;17473;52.286;20.930;2023-04-10T09:30:05;101133.72;;;26.30;34.26
30724;BME280;17473;52.286;20.930;2023-04-10T09:32:44;101122.47;;;26.50;33.28
30724;BME280;17473;52.286;20.930;2023-04-10T09:35:14;101124.81;;;26.23;34.02
30724;BME280;17473;52.286;20.930;2023-04-10T09:37:44;101111.56;;;25.56;35.83
30724;BME280;17473;52.286;20.930;2023-04-10T09:40:23;101121.06;;;25.80;33.89
30724;BME280;17473;52.286;20.930;2023-04-10T09:42:52;101111.25;;;24.52;35.57
30724;BME280;17473;52.286;20.930;2023-04-10T09:45:21;101107.03;;;25.59;34.54
30724;BME280;17473;52.286;20.930;2023-04-10T09:48:06;101100.81;;;25.54;34.92
30724;BME280;17473;52.286;20.930;2023-04-10T09:50:37;101109.28;;;25.29;34.67
30724;BME280;17473;52.286;20.930;2023-04-10T09:53:09;101107.16;;;26.00;35.06
30724;BME280;17473;52.286;20.930;2023-04-10T09:55:36;101108.94;;;26.50;33.81
30724;BME280;17473;52.286;20.930;2023-04-10T09:58:04;101095.81;;;26.30;34.68
30724;BME280;17473;52.286;20.930;2023-04-10T10:00:46;101095.06;;;26.65;33.98
30724;BME280;17473;52.286;20.930;2023-04-10T10:03:18;101091.00;;;27.26;33.09
30724;BME280;17473;52.286;20.930;2023-04-10T10:05:50;101090.94;;;27.27;33.16
30724;BME280;17473;52.286;20.930;2023-04-10T10:08:18;101087.88;;;27.77;31.67
30724;BME280;17473;52.286;20.930;2023-04-10T10:10:50;101085.88;;;27.13;33.04
30724;BME280;17473;52.286;20.930;2023-04-10T10:13:34;101090.53;;;27.46;32.74
30724;BME280;17473;52.286;20.930;2023-04-10T10:16:21;101077.03;;;26.64;33.28
30724;BME280;17473;52.286;20.930;2023-04-10T10:19:12;101085.59;;;26.44;33.87
30724;BME280;17473;52.286;20.930;2023-04-10T10:21:46;101082.84;;;26.46;32.88
30724;BME280;17473;52.286;20.930;2023-04-10T10:24:13;101074.22;;;25.80;32.52
30724;BME280;17473;52.286;20.930;2023-04-10T10:26:42;101062.75;;;25.67;33.04
30724;BME280;17473;52.286;20.930;2023-04-10T10:29:10;101075.00;;;26.33;33.20
30724;BME280;17473;52.286;20.930;2023-04-10T10:31:37;101064.19;;;26.32;33.56
30724;BME280;17473;52.286;20.930;2023-04-10T10:34:05;101057.84;;;26.33;32.76
30724;BME280;17473;52.286;20.930;2023-04-10T10:36:36;101060.16;;;26.51;33.28
30724;BME280;17473;52.286;20.930;2023-04-10T10:44:45;101059.44;;;25.98;32.98
30724;BME280;17473;52.286;20.930;2023-04-10T10:47:27;101047.47;;;25.62;33.03
30724;BME280;17473;52.286;20.930;2023-04-10T10:49:59;101048.44;;;25.05;33.36
30724;BME280;17473;52.286;20.930;2023-04-10T10:58:02;101057.72;;;24.85;33.13
30724;BME280;17473;52.286;20.930;2023-04-10T11:05:54;101037.63;;;24.43;34.47
30724;BME280;17473;52.286;20.930;2023-04-10T11:11:21;101038.34;;;25.15;32.94
30724;BME280;17473;52.286;20.930;2023-04-10T11:16:20;101026.81;;;23.65;34.75
30724;BME280;17473;52.286;20.930;2023-04-10T11:21:32;101023.09;;;23.76;33.74
30724;BME280;17473;52.286;20.930;2023-04-10T11:32:01;101007.88;;;23.71;34.59
30724;BME280;17473;52.286;20.930;2023-04-10T11:34:29;101011.03;;;23.26;35.55
30724;BME280;17473;52.286;20.930;2023-04-10T11:37:00;101002.06;;;23.18;35.00
30724;BME280;17473;52.286;20.930;2023-04-10T11:39:29;100998.25;;;23.45;35.58
30724;BME280;17473;52.286;20.930;2023-04-10T11:41:57;101001.78;;;23.50;35.33
30724;BME280;17473;52.286;20.930;2023-04-10T11:44:31;100992.88;;;23.45;34.30
30724;BME280;17473;52.286;20.930;2023-04-10T11:46:58;100994.00;;;23.21;34.69
30724;BME280;17473;52.286;20.930;2023-04-10T11:49:34;100988.50;;;23.32;35.29
30724;BME280;17473;52.286;20.930;2023-04-10T11:52:02;100992.00;;;23.40;34.87
30724;BME280;17473;52.286;20.930;2023-04-10T11:54:29;100985.25;;;22.89;35.42
30724;BME280;17473;52.286;20.930;2023-04-10T11:57:05;100974.31;;;23.11;34.06
30724;BME280;17473;52.286;20.930;2023-04-10T11:59:37;100968.66;;;23.40;33.89
30724;BME280;17473;52.286;20.930;2023-04-10T12:02:12;100964.97;;;23.49;33.95
30724;BME280;17473;52.286;20.930;2023-04-10T12:04:43;100968.81;;;23.26;35.14
30724;BME280;17473;52.286;20.930;2023-04-10T12:07:10;100952.72;;;23.14;35.33
30724;BME280;17473;52.286;20.930;2023-04-10T12:09:37;100961.00;;;22.91;35.89
30724;BME280;17473;52.286;20.930;2023-04-10T12:12:06;100963.16;;;22.34;37.02
30724;BME280;17473;52.286;20.930;2023-04-10T12:14:36;100952.25;;;22.65;36.62
30724;BME280;17473;52.286;20.930;2023-04-10T12:17:06;100952.38;;;22.45;36.98
30724;BME280;17473;52.286;20.930;2023-04-10T12:19:35;100950.66;;;22.24;36.70
30724;BME280;17473;52.286;20.930;2023-04-10T12:22:03;100959.72;;;22.09;37.13
30724;BME280;17473;52.286;20.930;2023-04-10T12:24:52;100940.16;;;21.75;37.58
30724;BME280;17473;52.286;20.930;2023-04-10T12:27:22;100936.53;;;21.85;36.99
30724;BME280;17473;52.286;20.930;2023-04-10T12:29:52;100941.09;;;21.63;37.83
30724;BME280;17473;52.286;20.930;2023-04-10T12:32:20;100931.19;;;21.72;37.27
30724;BME280;17473;52.286;20.930;2023-04-10T12:34:58;100922.91;;;22.19;36.66
30724;BME280;17473;52.286;20.930;2023-04-10T12:37:50;100925.69;;;22.00;37.28
30724;BME280;17473;52.286;20.930;2023-04-10T12:40:18;100932.88;;;21.94;36.62
30724;BME280;17473;52.286;20.930;2023-04-10T12:42:46;100921.19;;;22.04;36.15
30724;BME280;17473;52.286;20.930;2023-04-10T12:45:13;100915.97;;;21.71;36.92
30724;BME280;17473;52.286;20.930;2023-04-10T12:47:48;100911.47;;;21.70;37.87
30724;BME280;17473;52.286;20.930;2023-04-10T12:50:18;100912.44;;;21.62;38.35
30724;BME280;17473;52.286;20.930;2023-04-10T12:53:05;100907.13;;;21.23;38.02
30724;BME280;17473;52.286;20.930;2023-04-10T12:55:37;100904.38;;;21.48;37.89
30724;BME280;17473;52.286;20.930;2023-04-10T12:58:19;100899.81;;;21.79;37.26
30724;BME280;17473;52.286;20.930;2023-04-10T13:00:47;100900.63;;;21.97;37.06
30724;BME280;17473;52.286;20.930;2023-04-10T13:03:14;100900.63;;;21.94;35.84
30724;BME280;17473;52.286;20.930;2023-04-10T13:05:43;100905.25;;;21.62;36.24
30724;BME280;17473;52.286;20.930;2023-04-10T13:08:10;100889.97;;;21.77;36.64
30724;BME280;17473;52.286;20.930;2023-04-10T13:10:37;100889.84;;;22.01;36.73
30724;BME280;17473;52.286;20.930;2023-04-10T13:13:04;100877.38;;;21.86;35.93
30724;BME280;17473;52.286;20.930;2023-04-10T13:15:33;100884.59;;;21.75;35.87
30724;BME280;17473;52.286;20.930;2023-04-10T13:18:00;100881.91;;;21.70;36.64
30724;BME280;17473;52.286;20.930;2023-04-10T13:20:34;100886.34;;;21.85;36.59
30724;BME280;17473;52.286;20.930;2023-04-10T13:23:02;100881.09;;;21.43;38.01
30724;BME280;17473;52.286;20.930;2023-04-10T13:25:35;100879.34;;;21.36;36.35
30724;BME280;17473;52.286;20.930;2023-04-10T13:28:02;100867.81;;;20.97;36.67
30724;BME280;17473;52.286;20.930;2023-04-10T13:30:40;100868.66;;;20.46;37.78
30724;BME280;17473;52.286;20.930;2023-04-10T13:33:08;100865.09;;;20.54;38.11
30724;BME280;17473;52.286;20.930;2023-04-10T13:35:36;100870.44;;;20.44;38.43
30724;BME280;17473;52.286;20.930;2023-04-10T13:38:03;100870.47;;;20.71;38.25
30724;BME280;17473;52.286;20.930;2023-04-10T13:40:30;100870.47;;;20.61;38.63
30724;BME280;17473;52.286;20.930;2023-04-10T13:42:57;100864.19;;;20.64;38.91
30724;BME280;17473;52.286;20.930;2023-04-10T13:45:24;100867.78;;;20.41;38.93